Flight Track Log - Related Links

Times and Time Zones

All times are in EST time to prevent confusion due to time zone crossing. See the CSH9418 flight status page for this flight to view local times or setup timezone preferences in your user account.

Time Position Orientation Groundspeed Altitude Reporting Facility
EST Latitude Longitude Course Direction KTS MPH feet Rate Location/Type
Fri 10:44:00 AM 33.3264 119.8088 148° Southeast  Level Estimated
Fri 10:45:00 AM 33.2639 119.8549 148° Southeast  Level Estimated
Fri 10:46:00 AM 33.2014 119.9009 148° Southeast  Level Estimated
Fri 10:47:00 AM 33.1390 119.9468 148° Southeast  Level Estimated
Fri 10:48:00 AM 33.0765 119.9927 148° Southeast  Level Estimated
Fri 10:49:00 AM 33.0139 120.0385 148° Southeast  Level Estimated
Fri 10:50:00 AM 32.9514 120.0842 148° Southeast  Level Estimated
Fri 10:51:00 AM 32.8889 120.1298 148° Southeast  Level Estimated
Fri 10:52:00 AM 32.8263 120.1754 149° Southeast  Level Estimated
Fri 10:53:00 AM 32.7637 120.2210 149° Southeast  Level Estimated
Fri 10:54:00 AM 32.7011 120.2664 149° Southeast  Level Estimated
Fri 10:55:00 AM 32.6385 120.3118 149° Southeast  Level Estimated
Fri 10:56:00 AM 32.5759 120.3572 149° Southeast  Level Estimated
Fri 10:57:00 AM 32.5132 120.4025 149° Southeast  Level Estimated
Fri 10:58:00 AM 32.4505 120.4477 149° Southeast  Level Estimated
Fri 10:59:00 AM 32.3879 120.4928 149° Southeast  Level Estimated
Fri 11:00:00 AM 32.3252 120.5379 149° Southeast  Level Estimated
Fri 11:01:00 AM 32.2625 120.5829 149° Southeast  Level Estimated
Fri 11:02:00 AM 32.1997 120.6279 149° Southeast  Level Estimated
Fri 11:03:00 AM 32.1370 120.6728 149° Southeast  Level Estimated
Fri 11:04:00 AM 32.0742 120.7176 149° Southeast  Level Estimated
Fri 11:05:00 AM 32.0114 120.7624 149° Southeast  Level Estimated
Fri 11:06:00 AM 31.9487 120.8071 149° Southeast  Level Estimated
Fri 11:07:00 AM 31.8858 120.8518 149° Southeast  Level Estimated
Fri 11:08:00 AM 31.8230 120.8964 149° Southeast  Level Estimated
Fri 11:09:00 AM 31.7602 120.9409 149° Southeast  Level Estimated
Fri 11:10:00 AM 31.6973 120.9854 149° Southeast  Level Estimated
Fri 11:11:00 AM 31.6345 121.0298 149° Southeast  Level Estimated
Fri 11:12:00 AM 31.5716 121.0742 149° Southeast  Level Estimated
Fri 11:13:00 AM 31.5087 121.1185 149° Southeast  Level Estimated
Fri 11:14:00 AM 31.4458 121.1627 149° Southeast  Level Estimated
Fri 11:15:00 AM 31.3828 121.2069 149° Southeast  Level Estimated
Fri 11:16:00 AM 31.3199 121.2510 149° Southeast  Level Estimated
Fri 11:17:00 AM 31.2569 121.2951 149° Southeast  Level Estimated
Fri 11:18:00 AM 31.1979 121.3363 149° Southeast  Level Estimated
Fri 11:19:00 AM 31.1979 121.3363 350° North  Level Estimated
Fri 11:20:00 AM 31.1979 121.3363 350° North  Level Estimated
Fri 11:21:00 AM 31.1979 121.3363 350° North  Level Estimated
Fri 11:22:00 AM 31.1979 121.3363 350° North  Level Estimated
Fri 11:23:00 AM 31.1979 121.3363 350° North  Level Estimated
Fri 11:24:00 AM 31.1979 121.3363 350° North  Level Estimated
Fri 11:25:00 AM 31.1979 121.3363 350° North  Level Estimated
Fri 11:26:00 AM 31.1979 121.3363 350° North  Level Estimated
Fri 11:27:00 AM 31.1979 121.3363 350° North  Level Estimated
Fri 11:28:00 AM 31.1979 121.3363 350° North  Level Estimated
Fri 11:29:00 AM 31.1979 121.3363 350° North  Level Estimated

Login

Don't have an account? Register now (free) for customized features, flight alerts, and more!